sensor_id;sensor_type;location;lat;lon;timestamp;temperature;humidity
53310;DHT22;39197;53.200;5.792;2022-12-18T00:01:03;-3.10;99.90
53310;DHT22;39197;53.200;5.792;2022-12-18T00:03:33;-3.10;99.90
53310;DHT22;39197;53.200;5.792;2022-12-18T00:05:58;-3.10;99.90
53310;DHT22;39197;53.200;5.792;2022-12-18T00:08:24;-3.10;99.90
53310;DHT22;39197;53.200;5.792;2022-12-18T00:10:49;-3.10;99.90
53310;DHT22;39197;53.200;5.792;2022-12-18T00:13:16;-3.10;99.90
53310;DHT22;39197;53.200;5.792;2022-12-18T00:15:41;-3.10;99.90
53310;DHT22;39197;53.200;5.792;2022-12-18T00:18:07;-3.10;99.90
53310;DHT22;39197;53.200;5.792;2022-12-18T00:20:37;-3.10;99.90
53310;DHT22;39197;53.200;5.792;2022-12-18T00:23:04;-3.10;99.90
53310;DHT22;39197;53.200;5.792;2022-12-18T00:25:33;-3.10;99.90
53310;DHT22;39197;53.200;5.792;2022-12-18T00:27:59;-3.10;99.90
53310;DHT22;39197;53.200;5.792;2022-12-18T00:30:25;-3.10;99.90
53310;DHT22;39197;53.200;5.792;2022-12-18T00:32:50;-3.20;99.90
53310;DHT22;39197;53.200;5.792;2022-12-18T00:35:16;-3.20;99.90
53310;DHT22;39197;53.200;5.792;2022-12-18T00:37:42;-3.20;99.90
53310;DHT22;39197;53.200;5.792;2022-12-18T00:40:08;-3.20;99.90
53310;DHT22;39197;53.200;5.792;2022-12-18T00:42:37;-3.20;99.90
53310;DHT22;39197;53.200;5.792;2022-12-18T00:45:30;-3.20;99.90
53310;DHT22;39197;53.200;5.792;2022-12-18T00:47:56;-3.30;99.90
53310;DHT22;39197;53.200;5.792;2022-12-18T00:50:23;-3.30;99.90
53310;DHT22;39197;53.200;5.792;2022-12-18T00:52:49;-3.30;99.90
53310;DHT22;39197;53.200;5.792;2022-12-18T00:55:15;-3.30;99.90
53310;DHT22;39197;53.200;5.792;2022-12-18T00:57:41;-3.30;99.90
53310;DHT22;39197;53.200;5.792;2022-12-18T01:00:09;-3.30;99.90
53310;DHT22;39197;53.200;5.792;2022-12-18T01:02:35;-2.40;99.90
53310;DHT22;39197;53.200;5.792;2022-12-18T01:05:00;-3.30;99.90
53310;DHT22;39197;53.200;5.792;2022-12-18T01:07:26;-3.30;99.90
53310;DHT22;39197;53.200;5.792;2022-12-18T01:09:52;-3.30;99.90
53310;DHT22;39197;53.200;5.792;2022-12-18T01:12:17;-3.40;99.90
53310;DHT22;39197;53.200;5.792;2022-12-18T01:14:43;-3.30;99.90
53310;DHT22;39197;53.200;5.792;2022-12-18T01:17:09;-3.30;99.90
53310;DHT22;39197;53.200;5.792;2022-12-18T01:19:34;-3.30;99.90
53310;DHT22;39197;53.200;5.792;2022-12-18T01:22:00;-3.30;99.90
53310;DHT22;39197;53.200;5.792;2022-12-18T01:24:25;-3.30;99.90
53310;DHT22;39197;53.200;5.792;2022-12-18T01:26:51;-3.30;99.90
53310;DHT22;39197;53.200;5.792;2022-12-18T01:29:17;-3.30;99.90
53310;DHT22;39197;53.200;5.792;2022-12-18T01:31:42;-3.30;99.90
53310;DHT22;39197;53.200;5.792;2022-12-18T01:34:09;-3.30;99.90
53310;DHT22;39197;53.200;5.792;2022-12-18T01:36:37;-3.30;99.90
53310;DHT22;39197;53.200;5.792;2022-12-18T01:39:05;-3.30;99.90
53310;DHT22;39197;53.200;5.792;2022-12-18T01:41:32;-3.30;99.90
53310;DHT22;39197;53.200;5.792;2022-12-18T01:45:36;-3.40;99.90
53310;DHT22;39197;53.200;5.792;2022-12-18T01:50:19;-3.40;99.90
53310;DHT22;39197;53.200;5.792;2022-12-18T01:52:55;-3.40;99.90
53310;DHT22;39197;53.200;5.792;2022-12-18T01:55:24;-3.40;99.90
53310;DHT22;39197;53.200;5.792;2022-12-18T01:57:52;-3.40;99.90
53310;DHT22;39197;53.200;5.792;2022-12-18T02:00:20;-3.50;99.90
53310;DHT22;39197;53.200;5.792;2022-12-18T02:02:47;-3.50;99.90
53310;DHT22;39197;53.200;5.792;2022-12-18T02:05:16;-3.50;99.90
53310;DHT22;39197;53.200;5.792;2022-12-18T02:08:26;-3.60;99.90
53310;DHT22;39197;53.200;5.792;2022-12-18T02:10:46;-3.60;99.90
53310;DHT22;39197;53.200;5.792;2022-12-18T02:15:58;-3.60;99.90
53310;DHT22;39197;53.200;5.792;2022-12-18T02:18:31;-3.60;99.90
53310;DHT22;39197;53.200;5.792;2022-12-18T02:21:04;-3.60;99.90
53310;DHT22;39197;53.200;5.792;2022-12-18T02:28:36;-3.60;99.90
53310;DHT22;39197;53.200;5.792;2022-12-18T02:31:06;-3.70;99.90
53310;DHT22;39197;53.200;5.792;2022-12-18T02:33:35;-3.70;99.90
53310;DHT22;39197;53.200;5.792;2022-12-18T02:36:01;-3.70;99.90
53310;DHT22;39197;53.200;5.792;2022-12-18T02:38:29;-3.70;99.90
53310;DHT22;39197;53.200;5.792;2022-12-18T02:40:56;-3.80;99.90
53310;DHT22;39197;53.200;5.792;2022-12-18T02:43:22;-3.80;99.90
53310;DHT22;39197;53.200;5.792;2022-12-18T02:45:58;-3.80;99.90
53310;DHT22;39197;53.200;5.792;2022-12-18T02:48:28;-3.80;99.90
53310;DHT22;39197;53.200;5.792;2022-12-18T02:51:13;-3.90;99.90
53310;DHT22;39197;53.200;5.792;2022-12-18T02:53:51;-3.90;99.90
53310;DHT22;39197;53.200;5.792;2022-12-18T02:56:42;-3.90;99.90
53310;DHT22;39197;53.200;5.792;2022-12-18T02:59:18;-3.90;99.90
53310;DHT22;39197;53.200;5.792;2022-12-18T03:02:06;-3.80;99.90
53310;DHT22;39197;53.200;5.792;2022-12-18T03:04:47;-4.00;99.90
53310;DHT22;39197;53.200;5.792;2022-12-18T03:07:20;-4.00;99.90
53310;DHT22;39197;53.200;5.792;2022-12-18T03:09:50;-3.00;99.90
53310;DHT22;39197;53.200;5.792;2022-12-18T03:12:21;-4.00;99.90
53310;DHT22;39197;53.200;5.792;2022-12-18T03:17:27;-4.10;99.90
53310;DHT22;39197;53.200;5.792;2022-12-18T03:19:57;-4.10;99.90
53310;DHT22;39197;53.200;5.792;2022-12-18T03:22:26;-4.10;99.90
53310;DHT22;39197;53.200;5.792;2022-12-18T03:24:54;-4.10;99.90
53310;DHT22;39197;53.200;5.792;2022-12-18T03:27:21;-4.20;99.90
53310;DHT22;39197;53.200;5.792;2022-12-18T03:30:03;-4.20;99.90
53310;DHT22;39197;53.200;5.792;2022-12-18T03:33:00;-4.30;99.90
53310;DHT22;39197;53.200;5.792;2022-12-18T03:35:28;-4.30;99.90
53310;DHT22;39197;53.200;5.792;2022-12-18T03:37:56;-4.30;99.90
53310;DHT22;39197;53.200;5.792;2022-12-18T03:40:25;-4.30;99.90
53310;DHT22;39197;53.200;5.792;2022-12-18T03:43:02;-4.30;99.90
53310;DHT22;39197;53.200;5.792;2022-12-18T03:45:36;-4.40;99.90
53310;DHT22;39197;53.200;5.792;2022-12-18T03:50:44;-4.50;99.90
53310;DHT22;39197;53.200;5.792;2022-12-18T03:55:59;-4.50;99.90
53310;DHT22;39197;53.200;5.792;2022-12-18T03:58:26;-4.50;99.90
53310;DHT22;39197;53.200;5.792;2022-12-18T04:00:53;-4.50;99.90
53310;DHT22;39197;53.200;5.792;2022-12-18T04:03:22;-4.50;99.90
53310;DHT22;39197;53.200;5.792;2022-12-18T04:05:52;-4.60;99.90
53310;DHT22;39197;53.200;5.792;2022-12-18T04:08:20;-4.60;99.90
53310;DHT22;39197;53.200;5.792;2022-12-18T04:10:47;-4.60;99.90
53310;DHT22;39197;53.200;5.792;2022-12-18T04:13:13;-4.60;99.90
53310;DHT22;39197;53.200;5.792;2022-12-18T04:15:46;-4.60;99.90
53310;DHT22;39197;53.200;5.792;2022-12-18T04:18:12;-4.60;99.90
53310;DHT22;39197;53.200;5.792;2022-12-18T04:20:37;-4.70;99.90
53310;DHT22;39197;53.200;5.792;2022-12-18T04:23:03;-4.70;99.90
53310;DHT22;39197;53.200;5.792;2022-12-18T04:25:28;-4.70;99.90
53310;DHT22;39197;53.200;5.792;2022-12-18T04:27:54;-4.70;99.90
53310;DHT22;39197;53.200;5.792;2022-12-18T04:30:20;-4.70;99.90
53310;DHT22;39197;53.200;5.792;2022-12-18T04:32:45;-4.70;99.90
53310;DHT22;39197;53.200;5.792;2022-12-18T04:35:11;-4.70;99.90
53310;DHT22;39197;53.200;5.792;2022-12-18T04:37:37;-4.70;99.90
53310;DHT22;39197;53.200;5.792;2022-12-18T04:40:03;-4.80;99.90
53310;DHT22;39197;53.200;5.792;2022-12-18T04:42:29;-4.70;99.90
53310;DHT22;39197;53.200;5.792;2022-12-18T04:44:55;-4.80;99.90
53310;DHT22;39197;53.200;5.792;2022-12-18T04:47:20;-4.80;99.90
53310;DHT22;39197;53.200;5.792;2022-12-18T04:49:46;-4.80;99.90
53310;DHT22;39197;53.200;5.792;2022-12-18T04:52:12;-4.80;99.90
53310;DHT22;39197;53.200;5.792;2022-12-18T04:54:37;-4.80;99.90
53310;DHT22;39197;53.200;5.792;2022-12-18T04:57:03;-4.80;99.90
53310;DHT22;39197;53.200;5.792;2022-12-18T04:59:29;-4.80;99.90
53310;DHT22;39197;53.200;5.792;2022-12-18T05:01:54;-4.80;99.90
53310;DHT22;39197;53.200;5.792;2022-12-18T05:04:20;-4.80;99.90
53310;DHT22;39197;53.200;5.792;2022-12-18T05:06:45;-4.80;99.90
53310;DHT22;39197;53.200;5.792;2022-12-18T05:09:11;-4.90;99.90
53310;DHT22;39197;53.200;5.792;2022-12-18T05:11:37;-4.90;99.90
53310;DHT22;39197;53.200;5.792;2022-12-18T05:14:02;-4.90;99.90
53310;DHT22;39197;53.200;5.792;2022-12-18T05:16:28;-4.90;99.90
53310;DHT22;39197;53.200;5.792;2022-12-18T05:18:53;-4.90;99.90
53310;DHT22;39197;53.200;5.792;2022-12-18T05:21:19;-4.90;99.90
53310;DHT22;39197;53.200;5.792;2022-12-18T05:23:45;-4.90;99.90
53310;DHT22;39197;53.200;5.792;2022-12-18T05:26:16;-4.90;99.90
53310;DHT22;39197;53.200;5.792;2022-12-18T05:28:42;-5.00;99.90
53310;DHT22;39197;53.200;5.792;2022-12-18T05:31:09;-5.00;99.90
53310;DHT22;39197;53.200;5.792;2022-12-18T05:33:35;-5.00;99.90
53310;DHT22;39197;53.200;5.792;2022-12-18T05:36:06;-5.00;99.90
53310;DHT22;39197;53.200;5.792;2022-12-18T05:38:34;-5.00;99.90
53310;DHT22;39197;53.200;5.792;2022-12-18T05:41:00;-5.00;99.90
53310;DHT22;39197;53.200;5.792;2022-12-18T05:43:27;-5.00;99.90
53310;DHT22;39197;53.200;5.792;2022-12-18T05:45:53;-5.00;99.90
53310;DHT22;39197;53.200;5.792;2022-12-18T05:48:20;-5.00;99.90
53310;DHT22;39197;53.200;5.792;2022-12-18T05:50:47;-5.00;99.90
53310;DHT22;39197;53.200;5.792;2022-12-18T05:53:14;-5.00;99.90
53310;DHT22;39197;53.200;5.792;2022-12-18T05:55:41;-5.00;99.90
53310;DHT22;39197;53.200;5.792;2022-12-18T05:58:08;-5.00;99.90
53310;DHT22;39197;53.200;5.792;2022-12-18T06:00:36;-5.00;99.90
53310;DHT22;39197;53.200;5.792;2022-12-18T06:03:05;-5.00;99.90
53310;DHT22;39197;53.200;5.792;2022-12-18T06:05:38;-5.00;99.90
53310;DHT22;39197;53.200;5.792;2022-12-18T06:08:04;-5.00;99.90
53310;DHT22;39197;53.200;5.792;2022-12-18T06:10:30;-5.00;99.90
53310;DHT22;39197;53.200;5.792;2022-12-18T06:12:55;-5.10;99.90
53310;DHT22;39197;53.200;5.792;2022-12-18T06:15:21;-5.10;99.90
53310;DHT22;39197;53.200;5.792;2022-12-18T06:17:47;-5.10;99.90
53310;DHT22;39197;53.200;5.792;2022-12-18T06:20:12;-5.10;99.90
53310;DHT22;39197;53.200;5.792;2022-12-18T06:22:38;-5.10;99.90
53310;DHT22;39197;53.200;5.792;2022-12-18T06:25:04;-5.20;99.90
53310;DHT22;39197;53.200;5.792;2022-12-18T06:27:31;-5.20;99.90
53310;DHT22;39197;53.200;5.792;2022-12-18T06:29:59;-5.20;99.90
53310;DHT22;39197;53.200;5.792;2022-12-18T06:32:25;-5.30;99.90
53310;DHT22;39197;53.200;5.792;2022-12-18T06:34:50;-5.30;99.90
53310;DHT22;39197;53.200;5.792;2022-12-18T06:37:16;-5.40;99.90
53310;DHT22;39197;53.200;5.792;2022-12-18T06:39:42;-5.20;99.90
53310;DHT22;39197;53.200;5.792;2022-12-18T06:42:07;-5.40;99.90
53310;DHT22;39197;53.200;5.792;2022-12-18T06:44:33;-5.40;99.90
53310;DHT22;39197;53.200;5.792;2022-12-18T06:46:59;-5.40;99.90
53310;DHT22;39197;53.200;5.792;2022-12-18T06:49:24;-5.40;99.90
53310;DHT22;39197;53.200;5.792;2022-12-18T06:51:50;-5.40;99.90
53310;DHT22;39197;53.200;5.792;2022-12-18T06:54:16;-5.50;99.90
53310;DHT22;39197;53.200;5.792;2022-12-18T06:56:41;-5.50;99.90
53310;DHT22;39197;53.200;5.792;2022-12-18T06:59:07;-5.50;99.90
53310;DHT22;39197;53.200;5.792;2022-12-18T07:01:32;-5.50;99.90
53310;DHT22;39197;53.200;5.792;2022-12-18T07:03:59;-5.50;99.90
53310;DHT22;39197;53.200;5.792;2022-12-18T07:06:25;-5.50;99.90
53310;DHT22;39197;53.200;5.792;2022-12-18T07:08:52;-5.60;99.90
53310;DHT22;39197;53.200;5.792;2022-12-18T07:11:18;-5.60;99.90
53310;DHT22;39197;53.200;5.792;2022-12-18T07:13:45;-5.60;99.90
53310;DHT22;39197;53.200;5.792;2022-12-18T07:16:16;-5.60;99.90
53310;DHT22;39197;53.200;5.792;2022-12-18T07:18:42;-5.70;99.90
53310;DHT22;39197;53.200;5.792;2022-12-18T07:21:13;-5.60;99.90
53310;DHT22;39197;53.200;5.792;2022-12-18T07:23:39;-5.70;99.90
53310;DHT22;39197;53.200;5.792;2022-12-18T07:26:15;-5.60;99.90
53310;DHT22;39197;53.200;5.792;2022-12-18T07:28:41;-5.60;99.90
53310;DHT22;39197;53.200;5.792;2022-12-18T07:31:12;-5.60;99.90
53310;DHT22;39197;53.200;5.792;2022-12-18T07:33:40;-5.60;99.90
53310;DHT22;39197;53.200;5.792;2022-12-18T07:36:07;-5.60;99.90
53310;DHT22;39197;53.200;5.792;2022-12-18T07:38:34;-5.50;99.90
53310;DHT22;39197;53.200;5.792;2022-12-18T07:41:05;-5.50;99.90
53310;DHT22;39197;53.200;5.792;2022-12-18T07:43:31;-5.50;99.90
53310;DHT22;39197;53.200;5.792;2022-12-18T07:45:57;-5.50;99.90
53310;DHT22;39197;53.200;5.792;2022-12-18T07:48:23;-5.50;99.90
53310;DHT22;39197;53.200;5.792;2022-12-18T07:50:48;-5.60;99.90
53310;DHT22;39197;53.200;5.792;2022-12-18T07:53:14;-5.60;99.90
53310;DHT22;39197;53.200;5.792;2022-12-18T07:55:41;-5.50;99.90
53310;DHT22;39197;53.200;5.792;2022-12-18T07:58:07;-5.50;99.90
53310;DHT22;39197;53.200;5.792;2022-12-18T08:00:33;-5.50;99.90
53310;DHT22;39197;53.200;5.792;2022-12-18T08:03:00;-5.50;99.90
53310;DHT22;39197;53.200;5.792;2022-12-18T08:05:26;-5.50;99.90
53310;DHT22;39197;53.200;5.792;2022-12-18T08:07:52;-5.40;99.90
53310;DHT22;39197;53.200;5.792;2022-12-18T08:10:18;-5.40;99.90
53310;DHT22;39197;53.200;5.792;2022-12-18T08:12:44;-5.40;99.90
53310;DHT22;39197;53.200;5.792;2022-12-18T08:15:10;-5.40;99.90
53310;DHT22;39197;53.200;5.792;2022-12-18T08:17:36;-5.40;99.90
53310;DHT22;39197;53.200;5.792;2022-12-18T08:20:02;-5.40;99.90
53310;DHT22;39197;53.200;5.792;2022-12-18T08:22:28;-5.30;99.90
53310;DHT22;39197;53.200;5.792;2022-12-18T08:24:53;-5.30;99.90
53310;DHT22;39197;53.200;5.792;2022-12-18T08:27:19;-5.20;99.90
53310;DHT22;39197;53.200;5.792;2022-12-18T08:29:45;-5.20;99.90
53310;DHT22;39197;53.200;5.792;2022-12-18T08:32:10;-5.10;99.90
53310;DHT22;39197;53.200;5.792;2022-12-18T08:34:36;-5.10;99.90
53310;DHT22;39197;53.200;5.792;2022-12-18T08:37:01;-5.00;99.90
53310;DHT22;39197;53.200;5.792;2022-12-18T08:39:27;-5.00;99.90
53310;DHT22;39197;53.200;5.792;2022-12-18T08:41:52;-4.90;99.90
53310;DHT22;39197;53.200;5.792;2022-12-18T08:44:37;-4.90;99.90
53310;DHT22;39197;53.200;5.792;2022-12-18T08:47:02;-4.90;99.90
53310;DHT22;39197;53.200;5.792;2022-12-18T08:49:28;-4.80;99.90
53310;DHT22;39197;53.200;5.792;2022-12-18T08:51:55;-4.70;99.90
53310;DHT22;39197;53.200;5.792;2022-12-18T08:54:23;-4.70;99.90
53310;DHT22;39197;53.200;5.792;2022-12-18T08:56:49;-4.60;99.90
53310;DHT22;39197;53.200;5.792;2022-12-18T08:59:18;-4.50;99.90
53310;DHT22;39197;53.200;5.792;2022-12-18T09:01:45;-4.50;99.90
53310;DHT22;39197;53.200;5.792;2022-12-18T09:04:11;-4.40;99.90
53310;DHT22;39197;53.200;5.792;2022-12-18T09:06:37;-4.30;99.90
53310;DHT22;39197;53.200;5.792;2022-12-18T09:09:04;-4.30;99.90
53310;DHT22;39197;53.200;5.792;2022-12-18T09:11:30;-4.20;99.90
53310;DHT22;39197;53.200;5.792;2022-12-18T09:13:56;-4.10;99.90
53310;DHT22;39197;53.200;5.792;2022-12-18T09:16:24;-4.00;99.90
53310;DHT22;39197;53.200;5.792;2022-12-18T09:18:49;-3.90;99.90
53310;DHT22;39197;53.200;5.792;2022-12-18T09:21:18;-3.80;99.90
53310;DHT22;39197;53.200;5.792;2022-12-18T09:23:49;-3.80;99.90
53310;DHT22;39197;53.200;5.792;2022-12-18T09:26:14;-3.70;99.90
53310;DHT22;39197;53.200;5.792;2022-12-18T09:28:40;-3.60;99.90
53310;DHT22;39197;53.200;5.792;2022-12-18T09:31:06;-3.50;99.90
53310;DHT22;39197;53.200;5.792;2022-12-18T09:33:34;-3.40;99.90
53310;DHT22;39197;53.200;5.792;2022-12-18T09:36:05;-3.30;99.90
53310;DHT22;39197;53.200;5.792;2022-12-18T09:38:32;-3.30;99.90
53310;DHT22;39197;53.200;5.792;2022-12-18T09:46:41;-3.00;99.90
53310;DHT22;39197;53.200;5.792;2022-12-18T09:49:13;-2.70;99.90
53310;DHT22;39197;53.200;5.792;2022-12-18T09:51:54;-2.20;99.90
53310;DHT22;39197;53.200;5.792;2022-12-18T09:54:31;-1.80;99.90
53310;DHT22;39197;53.200;5.792;2022-12-18T09:56:58;-1.70;99.90
53310;DHT22;39197;53.200;5.792;2022-12-18T09:59:27;-1.80;99.90
53310;DHT22;39197;53.200;5.792;2022-12-18T10:01:55;-1.70;99.90
53310;DHT22;39197;53.200;5.792;2022-12-18T10:04:21;-1.80;99.90
53310;DHT22;39197;53.200;5.792;2022-12-18T10:06:54;-1.80;99.90
53310;DHT22;39197;53.200;5.792;2022-12-18T10:12:05;-2.10;99.90
53310;DHT22;39197;53.200;5.792;2022-12-18T10:14:47;-2.00;99.90
53310;DHT22;39197;53.200;5.792;2022-12-18T10:17:30;-2.10;99.90
53310;DHT22;39197;53.200;5.792;2022-12-18T10:20:10;-2.10;99.90
53310;DHT22;39197;53.200;5.792;2022-12-18T10:25:26;-2.10;99.90
53310;DHT22;39197;53.200;5.792;2022-12-18T10:27:56;-2.10;99.90
53310;DHT22;39197;53.200;5.792;2022-12-18T10:30:24;-2.10;99.90
53310;DHT22;39197;53.200;5.792;2022-12-18T10:32:50;-2.10;99.90
53310;DHT22;39197;53.200;5.792;2022-12-18T10:35:25;-2.00;99.90
53310;DHT22;39197;53.200;5.792;2022-12-18T10:41:06;-2.00;99.90
53310;DHT22;39197;53.200;5.792;2022-12-18T10:43:40;-2.00;99.90
53310;DHT22;39197;53.200;5.792;2022-12-18T10:56:21;-1.80;99.90
53310;DHT22;39197;53.200;5.792;2022-12-18T10:59:03;-1.80;99.90
53310;DHT22;39197;53.200;5.792;2022-12-18T11:01:55;-1.80;99.90
53310;DHT22;39197;53.200;5.792;2022-12-18T11:04:23;-1.80;99.90
53310;DHT22;39197;53.200;5.792;2022-12-18T11:07:08;-1.80;99.90
53310;DHT22;39197;53.200;5.792;2022-12-18T11:09:39;-1.80;99.90
53310;DHT22;39197;53.200;5.792;2022-12-18T11:12:19;-1.70;99.90
53310;DHT22;39197;53.200;5.792;2022-12-18T11:14:52;-1.70;99.90
53310;DHT22;39197;53.200;5.792;2022-12-18T11:22:55;-1.50;99.90
53310;DHT22;39197;53.200;5.792;2022-12-18T11:25:22;-1.50;99.90
53310;DHT22;39197;53.200;5.792;2022-12-18T11:28:00;-1.50;99.90
53310;DHT22;39197;53.200;5.792;2022-12-18T11:30:29;-1.40;99.90
53310;DHT22;39197;53.200;5.792;2022-12-18T11:38:21;-1.40;99.90
53310;DHT22;39197;53.200;5.792;2022-12-18T11:41:27;-1.40;99.90
53310;DHT22;39197;53.200;5.792;2022-12-18T11:44:32;-1.40;99.90
53310;DHT22;39197;53.200;5.792;2022-12-18T11:47:07;-1.30;99.90
53310;DHT22;39197;53.200;5.792;2022-12-18T11:49:35;-1.40;99.90
53310;DHT22;39197;53.200;5.792;2022-12-18T11:52:18;-1.40;99.90
53310;DHT22;39197;53.200;5.792;2022-12-18T11:54:45;-1.30;99.90
53310;DHT22;39197;53.200;5.792;2022-12-18T11:57:17;-1.30;99.90
53310;DHT22;39197;53.200;5.792;2022-12-18T12:00:14;-1.30;99.90
53310;DHT22;39197;53.200;5.792;2022-12-18T12:14:16;-1.40;99.90
53310;DHT22;39197;53.200;5.792;2022-12-18T12:25:16;-1.30;99.90
53310;DHT22;39197;53.200;5.792;2022-12-18T12:27:42;-1.20;99.90
53310;DHT22;39197;53.200;5.792;2022-12-18T12:30:21;-1.20;99.90
53310;DHT22;39197;53.200;5.792;2022-12-18T12:40:51;-1.10;99.90
53310;DHT22;39197;53.200;5.792;2022-12-18T12:43:28;-1.00;99.90
53310;DHT22;39197;53.200;5.792;2022-12-18T12:48:35;-1.10;99.90
53310;DHT22;39197;53.200;5.792;2022-12-18T12:53:42;-1.00;99.90
53310;DHT22;39197;53.200;5.792;2022-12-18T12:56:11;-1.10;99.90
53310;DHT22;39197;53.200;5.792;2022-12-18T13:01:17;-1.00;99.90
53310;DHT22;39197;53.200;5.792;2022-12-18T13:04:12;-0.90;99.90
53310;DHT22;39197;53.200;5.792;2022-12-18T13:06:48;-1.00;99.90
53310;DHT22;39197;53.200;5.792;2022-12-18T13:09:15;-1.00;99.90
53310;DHT22;39197;53.200;5.792;2022-12-18T13:11:43;-1.00;99.90
53310;DHT22;39197;53.200;5.792;2022-12-18T13:17:15;-1.00;99.90
53310;DHT22;39197;53.200;5.792;2022-12-18T13:19:42;-1.00;99.90
53310;DHT22;39197;53.200;5.792;2022-12-18T13:22:34;-1.00;99.90
53310;DHT22;39197;53.200;5.792;2022-12-18T13:25:00;-0.90;99.90
53310;DHT22;39197;53.200;5.792;2022-12-18T13:45:50;-1.00;99.90
53310;DHT22;39197;53.200;5.792;2022-12-18T13:48:26;-1.00;99.90
53310;DHT22;39197;53.200;5.792;2022-12-18T13:50:59;-1.00;99.90
53310;DHT22;39197;53.200;5.792;2022-12-18T13:53:29;-1.00;99.90
53310;DHT22;39197;53.200;5.792;2022-12-18T13:55:56;-1.00;99.90
53310;DHT22;39197;53.200;5.792;2022-12-18T13:58:22;-1.00;99.90
53310;DHT22;39197;53.200;5.792;2022-12-18T14:00:47;-1.00;99.90
53310;DHT22;39197;53.200;5.792;2022-12-18T14:03:27;-1.00;99.90
53310;DHT22;39197;53.200;5.792;2022-12-18T14:05:56;-1.00;99.90
53310;DHT22;39197;53.200;5.792;2022-12-18T14:08:25;-1.00;99.90
53310;DHT22;39197;53.200;5.792;2022-12-18T14:10:52;-1.00;99.90
53310;DHT22;39197;53.200;5.792;2022-12-18T14:13:28;-1.00;99.90
53310;DHT22;39197;53.200;5.792;2022-12-18T14:15:55;-1.00;99.90
53310;DHT22;39197;53.200;5.792;2022-12-18T14:18:29;-1.00;99.90
53310;DHT22;39197;53.200;5.792;2022-12-18T14:21:00;-1.00;99.90
53310;DHT22;39197;53.200;5.792;2022-12-18T14:23:38;-1.00;99.90
53310;DHT22;39197;53.200;5.792;2022-12-18T14:26:28;-1.00;99.90
53310;DHT22;39197;53.200;5.792;2022-12-18T14:29:27;-1.00;99.90
53310;DHT22;39197;53.200;5.792;2022-12-18T14:34:37;-1.10;99.90
53310;DHT22;39197;53.200;5.792;2022-12-18T14:37:04;-1.10;99.90
53310;DHT22;39197;53.200;5.792;2022-12-18T14:39:29;-1.10;99.90
53310;DHT22;39197;53.200;5.792;2022-12-18T14:41:55;-1.10;99.90
53310;DHT22;39197;53.200;5.792;2022-12-18T14:44:21;-1.10;99.90
53310;DHT22;39197;53.200;5.792;2022-12-18T14:46:48;-1.10;99.90
